createdAt,value
2023-03-02T00:01:51.719Z,100274.84
2023-03-02T00:04:23.873Z,100241.72
2023-03-02T00:06:54.323Z,100276.53
2023-03-02T00:09:22.328Z,100278.50
2023-03-02T00:11:50.474Z,100278.63
2023-03-02T00:14:18.652Z,100262.28
2023-03-02T00:16:48.187Z,100278.94
2023-03-02T00:19:16.121Z,100280.66
2023-03-02T00:21:44.192Z,100253.97
2023-03-02T00:24:12.256Z,100274.03
2023-03-02T00:26:40.315Z,100232.41
2023-03-02T00:29:08.697Z,100280.00
2023-03-02T00:31:38.069Z,100272.00
2023-03-02T00:34:07.375Z,100275.28
2023-03-02T00:36:35.402Z,100275.91
2023-03-02T00:39:04.522Z,100264.72
2023-03-02T00:41:32.601Z,100273.75
2023-03-02T00:44:00.734Z,100279.50
2023-03-02T00:46:28.949Z,100279.44
2023-03-02T00:48:57.005Z,100271.13
2023-03-02T00:51:26.329Z,100216.88
2023-03-02T00:53:54.249Z,100241.16
2023-03-02T00:56:22.269Z,100237.63
2023-03-02T00:58:50.227Z,100250.47
2023-03-02T01:01:18.836Z,100250.03
2023-03-02T01:03:47.244Z,100252.53
2023-03-02T01:06:17.370Z,100254.47
2023-03-02T01:08:47.237Z,100252.84
2023-03-02T01:11:17.058Z,100250.41
2023-03-02T01:13:45.363Z,100254.06
2023-03-02T01:16:13.785Z,100217.44
2023-03-02T01:18:42.058Z,100217.34
2023-03-02T01:21:13.123Z,100244.66
2023-03-02T01:23:41.394Z,100244.81
2023-03-02T01:26:11.271Z,100246.13
2023-03-02T01:28:39.194Z,100234.69
2023-03-02T01:31:07.356Z,100237.06
2023-03-02T01:33:35.306Z,100233.81
2023-03-02T01:36:03.471Z,100218.22
2023-03-02T01:38:31.612Z,100245.97
2023-03-02T01:40:59.620Z,100211.28
2023-03-02T01:43:29.477Z,100135.03
2023-03-02T01:46:00.633Z,100234.75
2023-03-02T01:48:32.717Z,100215.34
2023-03-02T01:51:03.583Z,100213.66
2023-03-02T01:53:33.931Z,100219.97
2023-03-02T01:56:03.356Z,100199.09
2023-03-02T01:58:36.914Z,100225.06
2023-03-02T02:01:05.856Z,100225.72
2023-03-02T02:03:33.964Z,100207.13
2023-03-02T02:06:13.488Z,100212.44
2023-03-02T02:08:41.567Z,100205.88
2023-03-02T02:11:09.501Z,100212.28
2023-03-02T02:13:38.894Z,100212.09
2023-03-02T02:16:08.082Z,100218.63
2023-03-02T02:18:39.688Z,100212.19
2023-03-02T02:21:08.996Z,100214.44
2023-03-02T02:23:44.094Z,100212.59
2023-03-02T02:26:21.853Z,100209.28
2023-03-02T02:28:57.869Z,100219.09
2023-03-02T02:31:32.107Z,100210.06
2023-03-02T02:34:06.301Z,100203.25
2023-03-02T02:36:39.825Z,100150.31
2023-03-02T02:39:15.667Z,100200.25
2023-03-02T02:41:48.507Z,100184.50
2023-03-02T02:44:19.351Z,100201.59
2023-03-02T02:46:47.865Z,100196.13
2023-03-02T02:49:27.198Z,100165.88
2023-03-02T02:51:55.606Z,100192.72
2023-03-02T02:54:24.947Z,100188.88
2023-03-02T02:56:55.322Z,100190.41
2023-03-02T02:59:26.930Z,100185.16
2023-03-02T03:01:55.177Z,100186.22
2023-03-02T03:04:25.916Z,100181.00
2023-03-02T03:06:55.708Z,100187.53
2023-03-02T03:09:24.322Z,100196.06
2023-03-02T03:11:56.761Z,100190.41
2023-03-02T03:14:30.678Z,100188.72
2023-03-02T03:16:58.701Z,100181.56
2023-03-02T03:19:29.033Z,100187.66
2023-03-02T03:21:59.584Z,100194.75
2023-03-02T03:24:29.130Z,100194.03
2023-03-02T03:26:58.712Z,100182.19
2023-03-02T03:29:28.445Z,100183.63
2023-03-02T03:31:58.272Z,100180.31
2023-03-02T03:34:26.776Z,100184.66
2023-03-02T03:36:54.886Z,100155.66
2023-03-02T03:39:23.044Z,100176.25
2023-03-02T03:41:50.946Z,100127.78
2023-03-02T03:44:20.313Z,100184.72
2023-03-02T03:46:48.256Z,100189.16
2023-03-02T03:49:16.214Z,100194.63
2023-03-02T03:51:44.229Z,100193.72
2023-03-02T03:54:12.564Z,100195.91
2023-03-02T03:56:43.591Z,100190.06
2023-03-02T03:59:13.868Z,100201.34
2023-03-02T04:01:45.125Z,100197.25
2023-03-02T04:04:16.368Z,100200.47
2023-03-02T04:06:44.791Z,100195.66
2023-03-02T04:09:15.406Z,100193.06
2023-03-02T04:11:44.942Z,100187.81
2023-03-02T04:14:13.709Z,100197.19
2023-03-02T04:16:43.990Z,100200.88
2023-03-02T04:19:13.542Z,100188.72
2023-03-02T04:21:45.029Z,100190.53
2023-03-02T04:24:14.421Z,100187.66
2023-03-02T04:26:43.501Z,100174.56
2023-03-02T04:29:13.117Z,100177.25
2023-03-02T04:31:41.464Z,100182.28
2023-03-02T04:34:11.089Z,100185.06
2023-03-02T04:36:40.506Z,100184.59
2023-03-02T04:39:09.262Z,100190.06
2023-03-02T04:41:37.224Z,100171.34
2023-03-02T04:44:05.804Z,100201.03
2023-03-02T04:46:35.310Z,100212.28
2023-03-02T04:49:04.360Z,100209.44
2023-03-02T04:51:36.482Z,100211.66
2023-03-02T04:54:06.726Z,100176.97
2023-03-02T04:56:35.370Z,100213.50
2023-03-02T04:59:03.681Z,100196.69
2023-03-02T05:01:31.521Z,100189.91
2023-03-02T05:04:01.256Z,100208.78
2023-03-02T05:06:30.959Z,100221.81
2023-03-02T05:09:00.670Z,100220.66
2023-03-02T05:11:29.098Z,100157.72
2023-03-02T05:13:59.370Z,100206.34
2023-03-02T05:16:29.598Z,100224.38
2023-03-02T05:18:57.682Z,100222.84
2023-03-02T05:21:25.695Z,100223.69
2023-03-02T05:23:54.533Z,100224.63
2023-03-02T05:26:23.939Z,100231.97
2023-03-02T05:28:53.950Z,100231.09
2023-03-02T05:31:24.935Z,100224.28
2023-03-02T05:33:52.936Z,100228.06
2023-03-02T05:36:23.163Z,100230.19
2023-03-02T05:38:51.627Z,100232.63
2023-03-02T05:41:19.690Z,100235.84
2023-03-02T05:43:49.101Z,100232.09
2023-03-02T05:46:17.530Z,100181.72
2023-03-02T05:48:46.666Z,100217.72
2023-03-02T05:51:15.755Z,100231.56
2023-03-02T05:53:43.745Z,100237.59
2023-03-02T05:56:11.727Z,100237.72
2023-03-02T05:58:39.722Z,100249.78
2023-03-02T06:01:15.176Z,100242.09
2023-03-02T06:03:43.630Z,100245.56
2023-03-02T06:06:14.139Z,100242.31
2023-03-02T06:08:43.000Z,100247.09
2023-03-02T06:11:11.614Z,100251.22
2023-03-02T06:13:40.558Z,100244.03
2023-03-02T06:16:10.484Z,100249.66
2023-03-02T06:18:41.492Z,100208.78
2023-03-02T06:21:10.183Z,100255.25
2023-03-02T06:23:38.272Z,100245.19
2023-03-02T06:26:09.407Z,100239.56
2023-03-02T06:28:49.705Z,100259.69
2023-03-02T06:31:21.320Z,100266.72
2023-03-02T06:33:49.362Z,100269.41
2023-03-02T06:36:17.720Z,100270.94
2023-03-02T06:38:45.794Z,100268.22
2023-03-02T06:41:13.742Z,100274.53
2023-03-02T06:43:41.735Z,100269.38
2023-03-02T06:46:09.855Z,100266.28
2023-03-02T06:48:39.194Z,100276.59
2023-03-02T06:51:07.982Z,100233.78
2023-03-02T06:53:35.949Z,100272.69
2023-03-02T06:56:03.929Z,100269.91
2023-03-02T06:58:31.863Z,100269.72
2023-03-02T07:00:59.802Z,100274.16
2023-03-02T07:03:27.742Z,100273.50
2023-03-02T07:05:57.071Z,100270.81
2023-03-02T07:08:25.266Z,100270.88
2023-03-02T07:10:53.167Z,100253.34
2023-03-02T07:13:21.306Z,100278.34
2023-03-02T07:15:49.427Z,100276.66
2023-03-02T07:18:17.825Z,100275.97
2023-03-02T07:20:45.850Z,100276.16
2023-03-02T07:23:15.085Z,100278.06
2023-03-02T07:25:43.087Z,100279.97
2023-03-02T07:28:11.003Z,100255.91
2023-03-02T07:30:39.016Z,100279.47
2023-03-02T07:33:07.178Z,100282.75
2023-03-02T07:35:35.223Z,100277.44
2023-03-02T07:38:03.211Z,100280.53
2023-03-02T07:40:32.622Z,100287.47
2023-03-02T07:43:00.634Z,100285.63
2023-03-02T07:45:28.574Z,99787.28
2023-03-02T07:47:56.437Z,100289.75
2023-03-02T07:50:24.397Z,100292.66
2023-03-02T07:52:52.562Z,100292.34
2023-03-02T07:55:20.571Z,100286.34
2023-03-02T07:57:49.995Z,100295.56
2023-03-02T08:00:19.057Z,100297.09
2023-03-02T08:02:47.190Z,100293.84
2023-03-02T08:05:15.816Z,100290.53
2023-03-02T08:07:44.122Z,100294.66
2023-03-02T08:10:13.388Z,100296.44
2023-03-02T08:12:42.894Z,100276.78
2023-03-02T08:15:13.439Z,100294.31
2023-03-02T08:17:41.371Z,100290.34
2023-03-02T08:20:10.258Z,100297.06
2023-03-02T08:22:38.224Z,100293.88
2023-03-02T08:25:07.362Z,100287.34
2023-03-02T08:27:35.383Z,100285.78
2023-03-02T08:30:03.521Z,100270.25
2023-03-02T08:32:33.976Z,100293.16
2023-03-02T08:35:02.281Z,100283.53
2023-03-02T08:37:30.240Z,100285.28
2023-03-02T08:39:58.875Z,100285.38
2023-03-02T08:42:26.944Z,100284.94
2023-03-02T08:44:54.906Z,100281.06
2023-03-02T08:47:22.806Z,100280.00
2023-03-02T08:49:52.214Z,100258.97
2023-03-02T08:52:20.261Z,100281.88
2023-03-02T08:54:48.271Z,100281.69
2023-03-02T08:57:16.223Z,100286.53
2023-03-02T08:59:44.217Z,100279.00
2023-03-02T09:02:12.580Z,100263.72
2023-03-02T09:04:40.534Z,100273.66
2023-03-02T09:07:10.488Z,100280.00
2023-03-02T09:09:38.459Z,100279.06
2023-03-02T09:12:06.642Z,100285.34
2023-03-02T09:14:34.619Z,100283.94
2023-03-02T09:17:02.773Z,100273.78
2023-03-02T09:19:30.800Z,100274.72
2023-03-02T09:21:58.778Z,100271.16
2023-03-02T09:24:28.165Z,100275.41
2023-03-02T09:26:56.177Z,100265.00
2023-03-02T09:29:24.216Z,100265.81
2023-03-02T09:31:52.186Z,100265.41
2023-03-02T09:34:20.279Z,100270.38
2023-03-02T09:36:48.287Z,100273.50
2023-03-02T09:39:16.267Z,100267.09
2023-03-02T09:42:18.586Z,100267.25
2023-03-02T09:45:16.282Z,100270.47
2023-03-02T09:47:53.092Z,100256.56
2023-03-02T09:50:31.983Z,100250.84
2023-03-02T09:53:29.509Z,100254.13
2023-03-02T09:56:01.835Z,100254.22
2023-03-02T09:58:36.351Z,100243.69
2023-03-02T10:01:11.234Z,100242.44
2023-03-02T10:03:46.466Z,100247.63
2023-03-02T10:06:14.614Z,100244.59
2023-03-02T10:08:43.490Z,100249.25
2023-03-02T10:11:18.963Z,100239.94
2023-03-02T10:13:53.759Z,100240.63
2023-03-02T10:16:34.166Z,100227.09
2023-03-02T10:19:11.066Z,100239.16
2023-03-02T10:21:41.849Z,100240.28
2023-03-02T10:24:18.897Z,100249.22
2023-03-02T10:26:49.418Z,100242.13
2023-03-02T10:29:37.276Z,100244.81
2023-03-02T10:32:14.496Z,100242.47
2023-03-02T10:34:42.619Z,100230.25
2023-03-02T10:37:15.352Z,100231.78
2023-03-02T10:39:43.412Z,100229.50
2023-03-02T10:42:18.117Z,100224.56
2023-03-02T10:44:50.003Z,100221.41
2023-03-02T10:47:23.327Z,100215.56
2023-03-02T10:49:52.530Z,100216.63
2023-03-02T10:52:22.591Z,100213.81
2023-03-02T10:54:52.756Z,100208.59
2023-03-02T10:57:35.534Z,100206.03
2023-03-02T11:00:16.001Z,100203.06
2023-03-02T11:02:53.574Z,100203.19
2023-03-02T11:05:29.674Z,100198.63
2023-03-02T11:07:59.270Z,100199.53
2023-03-02T11:10:30.123Z,100195.25
2023-03-02T11:12:58.856Z,100201.91
2023-03-02T11:15:35.751Z,100196.28
2023-03-02T11:18:08.520Z,100186.97
2023-03-02T11:20:40.063Z,100198.16
2023-03-02T11:23:17.274Z,100193.13
2023-03-02T11:25:49.825Z,100202.53
2023-03-02T11:28:39.400Z,100189.31
2023-03-02T11:31:16.693Z,100198.31
2023-03-02T11:33:54.832Z,100196.84
2023-03-02T11:36:29.042Z,100198.16
2023-03-02T11:38:57.299Z,100193.44
2023-03-02T11:41:29.989Z,100192.38
2023-03-02T11:44:00.849Z,100194.91
2023-03-02T11:46:33.542Z,100184.44
2023-03-02T11:49:06.691Z,100193.13
2023-03-02T11:51:42.308Z,100189.88
2023-03-02T11:54:24.412Z,100190.84
2023-03-02T11:56:52.440Z,100180.06
2023-03-02T11:59:21.733Z,100189.00
2023-03-02T12:01:54.467Z,100190.94
2023-03-02T12:04:32.471Z,100190.16
2023-03-02T12:07:01.953Z,100181.44
2023-03-02T12:09:37.722Z,100178.94
2023-03-02T12:12:33.753Z,100183.44
2023-03-02T12:15:02.312Z,100186.44
2023-03-02T12:17:36.644Z,100163.38
2023-03-02T12:20:26.465Z,100177.34
2023-03-02T12:22:55.379Z,100173.97
2023-03-02T12:25:30.470Z,100167.03
2023-03-02T12:27:58.518Z,100174.41
2023-03-02T12:30:30.437Z,100177.59
2023-03-02T12:33:20.169Z,100172.53
2023-03-02T12:35:56.341Z,100170.09
2023-03-02T12:38:31.085Z,100172.81
2023-03-02T12:41:27.630Z,100159.56
2023-03-02T12:44:08.477Z,100150.31
2023-03-02T12:46:37.670Z,100162.69
2023-03-02T12:49:17.999Z,100163.47
2023-03-02T12:51:52.522Z,100158.94
2023-03-02T12:54:22.796Z,100154.88
2023-03-02T12:56:51.302Z,100147.97
2023-03-02T12:59:24.313Z,100117.97
2023-03-02T13:01:52.303Z,100158.03
2023-03-02T13:04:27.111Z,100151.63
2023-03-02T13:06:55.516Z,100158.34
2023-03-02T13:09:24.929Z,100151.16
2023-03-02T13:11:55.128Z,100094.19
2023-03-02T13:14:27.911Z,100154.22
2023-03-02T13:16:58.573Z,100151.47
2023-03-02T13:19:30.686Z,100154.22
2023-03-02T13:21:59.806Z,100151.22
2023-03-02T13:24:36.066Z,100151.72
2023-03-02T13:27:08.392Z,100131.56
2023-03-02T13:29:36.485Z,100146.88
2023-03-02T13:32:22.616Z,100145.88
2023-03-02T13:34:54.836Z,100146.28
2023-03-02T13:37:36.170Z,100145.59
2023-03-02T13:40:06.839Z,100143.16
2023-03-02T13:42:40.504Z,100139.72
2023-03-02T13:45:23.883Z,100127.50
2023-03-02T13:47:51.956Z,100136.97
2023-03-02T13:50:24.894Z,100137.91
2023-03-02T13:52:54.135Z,100135.38
2023-03-02T13:55:23.271Z,100070.16
2023-03-02T13:57:53.172Z,100135.03
2023-03-02T14:00:24.239Z,100120.03
2023-03-02T14:02:52.225Z,100121.13
2023-03-02T14:05:24.009Z,100131.50
2023-03-02T14:07:52.019Z,100131.41
2023-03-02T14:10:21.622Z,100118.53
2023-03-02T14:12:55.133Z,100118.69
2023-03-02T14:15:23.192Z,100121.19
2023-03-02T14:17:51.162Z,100122.34
2023-03-02T14:20:21.748Z,100127.28
2023-03-02T14:22:50.640Z,100116.38
2023-03-02T14:25:19.548Z,100119.66
2023-03-02T14:27:48.270Z,100115.38
2023-03-02T14:30:19.240Z,100115.06
2023-03-02T14:32:47.928Z,100122.09
2023-03-02T14:35:17.041Z,100117.22
2023-03-02T14:37:49.433Z,100117.28
2023-03-02T14:40:25.164Z,100114.69
2023-03-02T14:42:53.280Z,100104.94
2023-03-02T14:45:21.497Z,100106.53
2023-03-02T14:47:49.629Z,100101.34
2023-03-02T14:50:18.134Z,100100.53
2023-03-02T14:52:50.826Z,100088.00
2023-03-02T14:55:23.741Z,100108.22
2023-03-02T14:57:55.600Z,100103.03
2023-03-02T15:00:24.313Z,100103.84
2023-03-02T15:02:52.769Z,100092.22
2023-03-02T15:05:21.144Z,100102.56
2023-03-02T15:07:53.601Z,100095.75
2023-03-02T15:10:23.410Z,100106.53
2023-03-02T15:12:51.870Z,100113.09
2023-03-02T15:15:20.067Z,100105.72
2023-03-02T15:17:48.070Z,100113.25
2023-03-02T15:20:17.703Z,100100.19
2023-03-02T15:22:45.685Z,100109.03
2023-03-02T15:25:15.004Z,100099.50
2023-03-02T15:27:43.088Z,100115.00
2023-03-02T15:30:12.473Z,100115.28
2023-03-02T15:32:40.468Z,100092.91
2023-03-02T15:35:09.847Z,100106.16
2023-03-02T15:37:37.840Z,100090.38
2023-03-02T15:40:07.464Z,100114.97
2023-03-02T15:42:37.185Z,100119.44
2023-03-02T15:45:05.760Z,100117.50
2023-03-02T15:47:34.472Z,100130.72
2023-03-02T15:50:02.435Z,100118.59
2023-03-02T15:52:30.580Z,100128.13
2023-03-02T15:54:58.495Z,100117.75
2023-03-02T15:57:26.489Z,100123.94
2023-03-02T15:59:55.954Z,100113.50
2023-03-02T16:02:23.943Z,100110.75
2023-03-02T16:04:51.946Z,100120.44
2023-03-02T16:07:19.970Z,100118.56
2023-03-02T16:09:48.209Z,100111.81
2023-03-02T16:12:16.162Z,100090.28
2023-03-02T16:14:44.175Z,100124.03
2023-03-02T16:17:13.656Z,100117.81
2023-03-02T16:19:41.800Z,100132.56
2023-03-02T16:22:09.764Z,100126.75
2023-03-02T16:24:37.851Z,100131.09
2023-03-02T16:27:09.138Z,100135.81
2023-03-02T16:29:37.621Z,100104.00
2023-03-02T16:32:06.522Z,100119.81
2023-03-02T16:34:36.127Z,100122.91
2023-03-02T16:37:04.266Z,100139.72
2023-03-02T16:39:32.619Z,100145.66
2023-03-02T16:42:00.572Z,100121.84
2023-03-02T16:44:28.564Z,100143.75
2023-03-02T16:46:57.535Z,100081.84
2023-03-02T16:49:25.998Z,100147.19
2023-03-02T16:51:59.329Z,100151.38
2023-03-02T16:54:27.345Z,100129.19
2023-03-02T16:56:55.310Z,100153.06
2023-03-02T16:59:23.266Z,100159.09
2023-03-02T17:01:51.355Z,100156.81
2023-03-02T17:04:21.336Z,100160.72
2023-03-02T17:07:03.899Z,100163.78
2023-03-02T17:09:35.829Z,100162.91
2023-03-02T17:12:04.164Z,100165.91
2023-03-02T17:14:32.091Z,100173.44
2023-03-02T17:17:00.065Z,100173.22
2023-03-02T17:19:29.584Z,100176.50
2023-03-02T17:21:58.576Z,100167.25
2023-03-02T17:24:28.224Z,100188.13
2023-03-02T17:26:58.104Z,100176.28
2023-03-02T17:29:26.940Z,100185.16
2023-03-02T17:31:54.897Z,100171.56
2023-03-02T17:34:23.062Z,100183.97
2023-03-02T17:36:51.025Z,100190.94
2023-03-02T17:39:18.961Z,100185.66
2023-03-02T17:41:46.915Z,100192.06
2023-03-02T17:44:16.440Z,100178.19
2023-03-02T17:46:45.573Z,100172.31
2023-03-02T17:49:14.182Z,100170.84
2023-03-02T17:51:42.185Z,100191.03
2023-03-02T17:54:10.534Z,100183.06
2023-03-02T17:56:38.416Z,100170.97
2023-03-02T17:59:06.685Z,100178.28
2023-03-02T18:01:36.502Z,100174.00
2023-03-02T18:04:04.956Z,100185.41
2023-03-02T18:06:33.359Z,100185.41
2023-03-02T18:09:01.340Z,100180.53
2023-03-02T18:11:29.507Z,100176.63
2023-03-02T18:13:58.156Z,100177.34
2023-03-02T18:16:29.308Z,100175.78
2023-03-02T18:18:58.829Z,100177.22
2023-03-02T18:21:27.058Z,100177.88
2023-03-02T18:23:55.166Z,100171.09
2023-03-02T18:26:23.105Z,100168.00
2023-03-02T18:28:51.188Z,100172.81
2023-03-02T18:31:20.161Z,100171.81
2023-03-02T18:33:48.137Z,100181.19
2023-03-02T18:36:17.483Z,100174.00
2023-03-02T18:38:45.798Z,100168.41
2023-03-02T18:41:14.862Z,100179.09
2023-03-02T18:43:43.563Z,100183.47
2023-03-02T18:46:19.414Z,100098.22
2023-03-02T18:48:47.780Z,100187.03
2023-03-02T18:51:17.122Z,100187.09
2023-03-02T18:53:45.388Z,100174.84
2023-03-02T18:56:13.304Z,100187.16
2023-03-02T18:58:41.455Z,100190.53
2023-03-02T19:01:09.681Z,100132.72
2023-03-02T19:03:38.749Z,100148.25
2023-03-02T19:06:08.183Z,100190.31
2023-03-02T19:08:37.584Z,100179.81
2023-03-02T19:11:06.903Z,100177.34
2023-03-02T19:13:34.879Z,100186.84
2023-03-02T19:16:03.017Z,100186.59
2023-03-02T19:18:31.519Z,100183.81
2023-03-02T19:20:59.519Z,100184.44
2023-03-02T19:23:28.006Z,100158.19
2023-03-02T19:25:57.384Z,100187.44
2023-03-02T19:28:26.111Z,100186.53
2023-03-02T19:30:54.239Z,100192.56
2023-03-02T19:33:24.745Z,100188.56
2023-03-02T19:35:52.842Z,100183.66
2023-03-02T19:38:20.931Z,100181.28
2023-03-02T19:40:49.040Z,100181.63
2023-03-02T19:43:20.348Z,100181.34
2023-03-02T19:45:48.432Z,100187.56
2023-03-02T19:48:16.405Z,100173.25
2023-03-02T19:50:45.457Z,100175.72
2023-03-02T19:53:13.690Z,100175.72
2023-03-02T19:55:42.528Z,100178.84
2023-03-02T19:58:12.840Z,100167.09
2023-03-02T20:00:42.137Z,100136.78
2023-03-02T20:03:10.164Z,100158.81
2023-03-02T20:05:39.516Z,100180.41
2023-03-02T20:08:08.822Z,100176.97
2023-03-02T20:10:40.162Z,100172.44
2023-03-02T20:13:09.705Z,100180.06
2023-03-02T20:15:39.185Z,100177.75
2023-03-02T20:18:11.731Z,100180.56
2023-03-02T20:20:41.191Z,100150.25
2023-03-02T20:23:09.438Z,100173.09
2023-03-02T20:25:37.580Z,100168.88
2023-03-02T20:28:06.999Z,100160.31
2023-03-02T20:30:38.962Z,100160.59
2023-03-02T20:33:09.473Z,100161.00
2023-03-02T20:35:41.259Z,100149.66
2023-03-02T20:38:11.669Z,100150.63
2023-03-02T20:40:41.323Z,100147.50
2023-03-02T20:43:09.388Z,100142.69
2023-03-02T20:45:37.428Z,100137.97
2023-03-02T20:48:06.644Z,100099.91
2023-03-02T20:50:37.531Z,100128.88
2023-03-02T20:53:06.663Z,100130.22
2023-03-02T20:55:35.445Z,100135.28
2023-03-02T20:58:05.467Z,100127.44
2023-03-02T21:00:36.122Z,100132.16
2023-03-02T21:03:04.480Z,100132.72
2023-03-02T21:05:34.711Z,100132.16
2023-03-02T21:08:04.273Z,100103.78
2023-03-02T21:10:35.178Z,100054.50
2023-03-02T21:13:03.779Z,100127.50
2023-03-02T21:15:32.241Z,100124.47
2023-03-02T21:18:00.284Z,100125.59
2023-03-02T21:20:30.555Z,100082.81
2023-03-02T21:22:59.401Z,100113.53
2023-03-02T21:25:29.066Z,100099.00
2023-03-02T21:27:57.282Z,100106.31
2023-03-02T21:30:28.734Z,100081.50
2023-03-02T21:32:57.924Z,100101.34
2023-03-02T21:35:25.985Z,100023.94
2023-03-02T21:37:56.826Z,100064.56
2023-03-02T21:40:32.136Z,100059.63
2023-03-02T21:43:00.539Z,100077.47
2023-03-02T21:45:29.964Z,100082.75
2023-03-02T21:47:58.284Z,100070.09
2023-03-02T21:50:29.245Z,100077.25
2023-03-02T21:52:59.270Z,100085.72
2023-03-02T21:55:30.072Z,100091.56
2023-03-02T21:57:59.470Z,100085.72
2023-03-02T22:00:29.200Z,100056.56
2023-03-02T22:02:57.663Z,100083.44
2023-03-02T22:05:25.738Z,100040.41
2023-03-02T22:07:54.385Z,100079.59
2023-03-02T22:10:31.410Z,100065.41
2023-03-02T22:13:15.021Z,100061.34
2023-03-02T22:15:43.074Z,100068.91
2023-03-02T22:18:13.359Z,100060.69
2023-03-02T22:20:44.256Z,100062.63
2023-03-02T22:23:14.400Z,100060.09
2023-03-02T22:25:44.684Z,100060.31
2023-03-02T22:28:18.882Z,100058.84
2023-03-02T22:30:47.018Z,100055.97
2023-03-02T22:33:19.741Z,100056.41
2023-03-02T22:35:48.518Z,100001.66
2023-03-02T22:38:24.304Z,100051.84
2023-03-02T22:40:54.470Z,100057.41
2023-03-02T22:43:26.125Z,100052.16
2023-03-02T22:45:55.590Z,100054.00
2023-03-02T22:48:28.649Z,99960.97
2023-03-02T22:50:56.703Z,100039.34
2023-03-02T22:53:29.118Z,100055.34
2023-03-02T22:56:00.763Z,100007.94
2023-03-02T22:58:43.843Z,100044.28
2023-03-02T23:01:22.101Z,100043.84
2023-03-02T23:03:52.356Z,100025.53
2023-03-02T23:06:30.183Z,100034.81
2023-03-02T23:09:00.072Z,100026.22
2023-03-02T23:11:32.471Z,100032.16
2023-03-02T23:14:01.948Z,100032.53
2023-03-02T23:16:36.167Z,100031.16
2023-03-02T23:19:05.691Z,100018.88
2023-03-02T23:21:39.484Z,100026.50
2023-03-02T23:24:08.830Z,100032.16
2023-03-02T23:26:38.497Z,100033.25
2023-03-02T23:29:06.840Z,100034.59
2023-03-02T23:31:35.021Z,100026.91
2023-03-02T23:34:03.153Z,100025.63
2023-03-02T23:36:32.012Z,100029.56
2023-03-02T23:39:00.124Z,100020.19
2023-03-02T23:41:28.449Z,100022.16
2023-03-02T23:43:58.220Z,100015.84
2023-03-02T23:46:26.724Z,99942.38
2023-03-02T23:48:56.174Z,100016.81
2023-03-02T23:51:25.535Z,100003.41
2023-03-02T23:53:53.956Z,100007.16
2023-03-02T23:56:22.275Z,100014.38
2023-03-02T23:58:50.711Z,100002.72
